Time;durP1;ratioP1;P1;durP2;ratioP2;P2;SDS_P1;SDS_P2;PMS_P1;PMS_P2;Temp;Humidity;BMP_temperature;BMP_pressure;BME280_temperature;BME280_humidity;BME280_pressure;Samples;Min_cycle;Max_cycle;Signal;HPM_P1;HPM_P2
2023/12/25 16:05:38;;;;;;;;;;;5.20;99.90;;;;;;5067933;27;2030280;-96
2023/12/25 16:08:04;;;;;;;;;;;5.10;99.90;;;;;;5130532;27;19912;-96
2023/12/25 16:10:29;;;;;;;;;;;5.20;99.90;;;;;;5137537;27;19908;-96
2023/12/25 16:12:55;;;;;;;;;;;5.30;99.90;;;;;;5137908;27;20411;-94
2023/12/25 16:15:21;;;;;;;;;;;5.40;99.90;;;;;;5137522;27;19907;-96
2023/12/25 16:17:47;;;;;;;;;;;5.50;99.90;;;;;;5135887;27;20008;-96
2023/12/25 16:20:13;;;;;;;;;;;5.60;99.90;;;;;;5136750;27;19918;-96
2023/12/25 16:22:38;;;;;;;;;;;5.80;99.90;;;;;;5128731;27;19911;-95
2023/12/25 16:25:04;;;;;;;;;;;5.90;99.90;;;;;;5118520;28;19923;-96
2023/12/25 16:27:29;;;;;;;;;;;6.00;99.90;;;;;;5127793;27;19916;-95
2023/12/25 16:29:55;;;;;;;;;;;6.10;99.90;;;;;;5138498;27;19907;-96
2023/12/25 16:32:20;;;;;;;;;;;6.20;99.90;;;;;;5136948;27;19907;-95
2023/12/25 16:34:46;;;;;;;;;;;6.20;99.90;;;;;;5122607;27;19911;-96
2023/12/25 16:37:11;;;;;;;;;;;6.30;99.90;;;;;;5136435;27;19943;-95
2023/12/25 16:39:43;;;;;;;;;;;6.40;99.90;;;;;;5147696;27;19911;-94
2023/12/25 16:42:14;;;;;;;;;;;6.40;99.90;;;;;;5125839;27;19912;-95
2023/12/25 16:44:39;;;;;;;;;;;6.50;99.90;;;;;;5123385;28;19911;-95
2023/12/25 16:47:08;;;;;;;;;;;6.50;99.90;;;;;;5128996;27;19922;-96
2023/12/25 16:49:33;;;;;;;;;;;6.60;99.90;;;;;;5126863;27;19950;-95
2023/12/25 16:51:59;;;;;;;;;;;6.60;99.90;;;;;;5124527;28;19961;-95
2023/12/25 16:54:24;;;;;;;;;;;6.70;99.90;;;;;;5123818;28;19919;-96
2023/12/25 16:56:50;;;;;;;;;;;6.70;99.90;;;;;;5124906;28;19911;-96
2023/12/25 16:59:16;;;;;;;;;;;6.80;99.90;;;;;;5130521;27;19976;-96
2023/12/25 17:01:42;;;;;;;;;;;6.80;99.90;;;;;;5184018;22;20004;-96
2023/12/25 17:04:11;;;;;;;;;;;6.80;99.90;;;;;;5075873;28;19919;-96
2023/12/25 17:06:36;;;;;;;;;;;6.80;99.90;;;;;;5079386;28;19916;-96
2023/12/25 17:09:02;;;;;;;;;;;6.80;99.90;;;;;;5082361;28;20281;-96
2023/12/25 17:11:33;;;;;;;;;;;6.80;99.90;;;;;;5085461;28;20349;-96
2023/12/25 17:14:14;;;;;;;;;;;6.80;99.90;;;;;;5113230;22;19905;-96
2023/12/25 17:16:43;;;;;;;;;;;6.90;99.90;;;;;;5242513;22;19946;-96
2023/12/25 17:19:09;;;;;;;;;;;6.90;99.90;;;;;;5088830;28;19915;-96
2023/12/25 17:21:38;;;;;;;;;;;7.00;99.90;;;;;;5134588;22;19969;-96
2023/12/25 17:24:05;;;;;;;;;;;7.00;99.90;;;;;;5066925;28;19921;-96
2023/12/25 17:26:30;;;;;;;;;;;7.00;99.90;;;;;;5063222;28;19991;-94
2023/12/25 17:28:56;;;;;;;;;;;7.00;99.90;;;;;;5060911;28;19963;-96
2023/12/25 17:33:57;;;;;;;;;;;7.10;99.90;;;;;;5605256;22;19924;-96
2023/12/25 17:36:23;;;;;;;;;;;7.10;99.90;;;;;;5044359;28;19910;-94
2023/12/25 17:38:48;;;;;;;;;;;7.10;99.90;;;;;;5039195;28;19913;-95
2023/12/25 17:41:14;;;;;;;;;;;7.10;99.90;;;;;;5038487;28;19909;-92
2023/12/25 17:43:50;;;;;;;;;;;7.10;99.90;;;;;;5036594;28;19956;-95
2023/12/25 17:46:15;;;;;;;;;;;7.10;99.90;;;;;;5043941;28;19916;-95
2023/12/25 17:48:41;;;;;;;;;;;7.10;99.90;;;;;;5038835;28;20358;-94
2023/12/25 17:51:06;;;;;;;;;;;7.10;99.90;;;;;;5037953;28;19921;-92
2023/12/25 17:53:32;;;;;;;;;;;7.10;99.90;;;;;;5031716;28;19917;-94
2023/12/25 17:55:57;;;;;;;;;;;7.10;99.90;;;;;;5034715;28;19963;-93
2023/12/25 17:58:23;;;;;;;;;;;7.10;99.90;;;;;;5039015;28;19913;-94
2023/12/25 18:00:48;;;;;;;;;;;7.20;99.90;;;;;;5050441;28;20377;-95
2023/12/25 18:03:14;;;;;;;;;;;7.20;99.90;;;;;;5050427;28;19921;-94
2023/12/25 18:05:39;;;;;;;;;;;7.20;99.90;;;;;;5043871;28;19915;-93
2023/12/25 18:08:07;;;;;;;;;;;7.20;99.90;;;;;;5038347;28;19913;-95
2023/12/25 18:10:32;;;;;;;;;;;7.20;99.90;;;;;;5043332;28;19913;-95
2023/12/25 18:12:59;;;;;;;;;;;7.20;99.90;;;;;;5046781;28;19963;-96
2023/12/25 18:35:11;;;;;;;;;;;7.00;99.90;;;;;;5083971;28;19938;-95
2023/12/25 18:37:37;;;;;;;;;;;7.00;99.90;;;;;;5055205;28;19912;-95
2023/12/25 18:40:03;;;;;;;;;;;7.00;99.90;;;;;;5055436;28;19920;-93
2023/12/25 18:42:28;;;;;;;;;;;7.00;99.90;;;;;;5055241;28;19909;-96
2023/12/25 18:44:54;;;;;;;;;;;7.00;99.90;;;;;;5064659;28;20258;-96
2023/12/25 18:47:19;;;;;;;;;;;7.10;99.90;;;;;;5064845;28;19908;-96
2023/12/25 18:49:45;;;;;;;;;;;7.10;99.90;;;;;;5061437;28;19943;-94
2023/12/25 18:52:11;;;;;;;;;;;7.10;99.90;;;;;;5060132;28;20288;-96
2023/12/25 18:54:36;;;;;;;;;;;7.00;99.90;;;;;;5323222;22;19931;-95
2023/12/25 18:57:02;;;;;;;;;;;7.00;99.90;;;;;;5075280;28;19916;-94
2023/12/25 18:59:28;;;;;;;;;;;7.00;99.90;;;;;;5074694;28;19909;-94
2023/12/25 19:01:53;;;;;;;;;;;6.90;99.90;;;;;;5069035;28;19935;-94
2023/12/25 19:04:19;;;;;;;;;;;6.90;99.90;;;;;;5073954;28;20289;-95
2023/12/25 19:06:46;;;;;;;;;;;6.90;99.90;;;;;;5068155;28;20391;-94
2023/12/25 19:09:11;;;;;;;;;;;6.90;99.90;;;;;;5060456;28;19913;-96
2023/12/25 19:11:37;;;;;;;;;;;6.90;99.90;;;;;;5064818;28;19916;-95
2023/12/25 19:14:03;;;;;;;;;;;6.90;99.90;;;;;;5073321;28;19922;-95
2023/12/25 19:16:28;;;;;;;;;;;6.90;99.90;;;;;;5074358;28;20365;-94
2023/12/25 19:18:54;;;;;;;;;;;7.00;99.90;;;;;;5060810;28;19912;-93
2023/12/25 19:21:20;;;;;;;;;;;7.00;99.90;;;;;;5073458;28;19916;-95
2023/12/25 19:23:46;;;;;;;;;;;6.90;99.90;;;;;;5069169;28;20285;-95
2023/12/25 19:26:12;;;;;;;;;;;7.00;99.90;;;;;;5076089;28;19914;-94
